createdAt,value
2019-02-16T00:02:29.138Z,65.62
2019-02-16T00:04:57.523Z,65.62
2019-02-16T00:07:25.955Z,65.70
2019-02-16T00:09:54.455Z,65.78
2019-02-16T00:12:22.823Z,65.80
2019-02-16T00:14:51.520Z,65.77
2019-02-16T00:17:19.896Z,65.91
2019-02-16T00:19:48.285Z,66.01
2019-02-16T00:22:16.685Z,66.18
2019-02-16T00:24:45.131Z,66.31
2019-02-16T00:27:13.831Z,66.51
2019-02-16T00:29:42.402Z,66.66
2019-02-16T00:32:10.921Z,66.62
2019-02-16T00:34:39.307Z,66.68
2019-02-16T00:37:07.723Z,66.74
2019-02-16T00:39:36.162Z,66.86
2019-02-16T00:42:04.798Z,66.87
2019-02-16T00:44:33.150Z,67.09
2019-02-16T00:47:01.606Z,67.05
2019-02-16T00:49:30.061Z,67.18
2019-02-16T00:51:58.528Z,67.30
2019-02-16T00:54:26.983Z,67.34
2019-02-16T00:56:55.679Z,67.38
2019-02-16T00:59:24.175Z,67.44
2019-02-16T01:01:52.680Z,67.48
2019-02-16T01:04:21.041Z,67.56
2019-02-16T01:06:49.445Z,67.65
2019-02-16T01:09:17.820Z,67.88
2019-02-16T01:11:46.421Z,67.83
2019-02-16T01:14:14.957Z,68.10
2019-02-16T01:16:43.716Z,68.23
2019-02-16T01:19:12.206Z,68.24
2019-02-16T01:21:40.577Z,68.46
2019-02-16T01:24:09.028Z,68.39
2019-02-16T01:26:37.490Z,68.48
2019-02-16T01:29:05.945Z,68.56
2019-02-16T01:31:34.437Z,68.71
2019-02-16T01:34:02.871Z,68.59
2019-02-16T01:36:31.253Z,68.67
2019-02-16T01:38:59.975Z,68.74
2019-02-16T01:41:28.451Z,68.77
2019-02-16T01:43:56.957Z,68.97
2019-02-16T01:46:25.443Z,68.96
2019-02-16T01:48:53.801Z,69.01
2019-02-16T01:51:31.443Z,69.58
2019-02-16T01:53:52.566Z,69.46
2019-02-16T01:56:21.064Z,69.50
2019-02-16T01:58:49.617Z,69.55
2019-02-16T02:01:18.088Z,69.74
2019-02-16T02:03:46.503Z,69.79
2019-02-16T02:06:15.049Z,69.73
2019-02-16T02:08:43.405Z,69.68
2019-02-16T02:11:11.804Z,69.87
2019-02-16T02:13:40.298Z,70.11
2019-02-16T02:16:08.961Z,70.13
2019-02-16T02:18:37.407Z,70.22
2019-02-16T02:21:06.080Z,70.05
2019-02-16T02:23:34.497Z,70.11
2019-02-16T02:26:02.995Z,70.20
2019-02-16T02:28:31.532Z,70.27
2019-02-16T02:31:00.049Z,70.15
2019-02-16T02:33:28.705Z,70.12
2019-02-16T02:35:57.285Z,70.33
2019-02-16T02:38:25.758Z,70.39
2019-02-16T02:40:54.253Z,70.47
2019-02-16T02:43:22.667Z,70.62
2019-02-16T02:45:51.148Z,70.49
2019-02-16T02:48:19.583Z,70.53
2019-02-16T02:50:48.088Z,70.50
2019-02-16T02:53:16.543Z,70.34
2019-02-16T02:55:45.001Z,70.65
2019-02-16T02:58:13.439Z,70.44
2019-02-16T03:00:41.915Z,70.56
2019-02-16T03:03:10.632Z,70.72
2019-02-16T03:05:39.107Z,70.70
2019-02-16T03:08:07.535Z,70.78
2019-02-16T03:10:35.955Z,70.74
2019-02-16T03:13:04.422Z,70.70
2019-02-16T03:15:34.113Z,70.80
2019-02-16T03:18:02.884Z,70.93
2019-02-16T03:20:31.344Z,70.87
2019-02-16T03:23:17.815Z,70.96
2019-02-16T03:26:07.150Z,70.92
2019-02-16T03:28:50.529Z,70.94
2019-02-16T03:31:40.157Z,71.04
2019-02-16T03:34:32.547Z,71.06
2019-02-16T03:37:26.630Z,70.99
2019-02-16T03:39:55.094Z,71.14
2019-02-16T03:42:23.841Z,71.27
2019-02-16T03:44:52.400Z,71.31
2019-02-16T03:47:20.840Z,71.31
2019-02-16T03:49:49.225Z,71.20
2019-02-16T03:52:17.661Z,71.26
2019-02-16T03:54:46.339Z,71.21
2019-02-16T03:57:14.828Z,71.14
2019-02-16T03:59:43.246Z,71.29
2019-02-16T04:02:11.869Z,71.27
2019-02-16T04:04:40.549Z,71.33
2019-02-16T04:07:08.995Z,71.42
2019-02-16T04:09:37.480Z,71.58
2019-02-16T04:12:05.996Z,71.90
2019-02-16T04:14:34.389Z,71.86
2019-02-16T04:17:02.860Z,71.98
2019-02-16T04:19:31.311Z,72.26
2019-02-16T04:21:59.775Z,72.25
2019-02-16T04:24:28.284Z,72.27
2019-02-16T04:26:56.721Z,72.18
2019-02-16T04:29:25.195Z,72.09
2019-02-16T04:31:53.581Z,72.22
2019-02-16T04:34:22.305Z,72.59
2019-02-16T04:36:50.687Z,72.72
2019-02-16T04:39:19.104Z,72.86
2019-02-16T04:41:47.463Z,72.34
2019-02-16T04:44:16.130Z,72.21
2019-02-16T04:46:44.618Z,72.20
2019-02-16T04:49:12.984Z,72.14
2019-02-16T04:51:41.672Z,72.13
2019-02-16T04:54:10.048Z,72.07
2019-02-16T04:56:38.422Z,71.95
2019-02-16T04:59:06.812Z,71.97
2019-02-16T05:01:35.341Z,72.00
2019-02-16T05:04:03.739Z,72.08
2019-02-16T05:06:32.158Z,72.10
2019-02-16T05:09:00.519Z,72.08
2019-02-16T05:11:28.939Z,72.07
2019-02-16T05:13:57.311Z,71.98
2019-02-16T05:16:25.763Z,72.04
2019-02-16T05:18:54.245Z,72.42
2019-02-16T05:21:22.621Z,72.94
2019-02-16T05:23:51.359Z,73.13
2019-02-16T05:26:19.745Z,73.64
2019-02-16T05:28:48.141Z,73.69
2019-02-16T05:31:16.599Z,73.89
2019-02-16T05:33:46.541Z,74.05
2019-02-16T05:36:14.982Z,74.54
2019-02-16T05:38:43.363Z,74.70
2019-02-16T05:41:11.810Z,74.45
2019-02-16T05:43:40.201Z,74.46
2019-02-16T05:46:08.828Z,74.44
2019-02-16T05:48:37.191Z,74.62
2019-02-16T05:51:05.592Z,74.63
2019-02-16T05:53:34.280Z,74.46
2019-02-16T05:56:18.276Z,74.72
2019-02-16T05:58:47.032Z,74.53
2019-02-16T06:01:15.462Z,74.88
2019-02-16T06:03:44.308Z,75.01
2019-02-16T06:06:12.827Z,74.75
2019-02-16T06:08:41.427Z,74.81
2019-02-16T06:11:10.118Z,75.00
2019-02-16T06:13:38.516Z,74.75
2019-02-16T06:16:06.926Z,74.47
2019-02-16T06:18:35.461Z,74.35
2019-02-16T06:21:03.934Z,73.99
2019-02-16T06:23:32.337Z,73.54
2019-02-16T06:26:00.830Z,73.89
2019-02-16T06:28:29.213Z,73.71
2019-02-16T06:30:57.603Z,73.76
2019-02-16T06:33:26.661Z,73.74
2019-02-16T06:35:57.414Z,73.28
2019-02-16T06:38:27.907Z,73.35
2019-02-16T06:40:57.206Z,73.26
2019-02-16T06:43:26.082Z,73.18
2019-02-16T06:45:58.206Z,73.16
2019-02-16T06:48:27.297Z,72.87
2019-02-16T06:50:56.503Z,72.58
2019-02-16T06:53:25.005Z,72.51
2019-02-16T06:55:55.355Z,72.12
2019-02-16T06:58:23.739Z,72.33
2019-02-16T07:00:52.357Z,72.39
2019-02-16T07:03:20.764Z,72.45
2019-02-16T07:05:49.152Z,72.31
2019-02-16T07:08:17.542Z,72.22
2019-02-16T07:10:46.074Z,71.87
2019-02-16T07:13:14.534Z,71.77
2019-02-16T07:15:44.796Z,71.14
2019-02-16T07:18:14.880Z,70.80
2019-02-16T07:20:43.270Z,71.42
2019-02-16T07:23:11.657Z,71.07
2019-02-16T07:25:40.071Z,71.33
2019-02-16T07:28:08.567Z,70.81
2019-02-16T07:30:36.968Z,71.27
2019-02-16T07:33:05.458Z,71.07
2019-02-16T07:35:34.265Z,70.90
2019-02-16T07:38:02.642Z,71.06
2019-02-16T07:40:31.252Z,71.02
2019-02-16T07:42:59.998Z,70.79
2019-02-16T07:45:46.407Z,70.42
2019-02-16T07:48:25.244Z,70.54
2019-02-16T07:50:57.953Z,70.32
2019-02-16T07:53:33.944Z,69.63
2019-02-16T07:56:03.942Z,69.55
2019-02-16T07:58:34.269Z,69.56
2019-02-16T08:01:13.153Z,69.34
2019-02-16T08:03:49.052Z,69.34
2019-02-16T08:06:35.358Z,68.75
2019-02-16T08:09:08.261Z,68.80
2019-02-16T08:11:40.816Z,68.70
2019-02-16T08:14:10.901Z,68.23
2019-02-16T08:16:47.105Z,67.88
2019-02-16T08:19:32.885Z,67.81
2019-02-16T08:22:05.372Z,67.39
2019-02-16T08:24:36.542Z,67.23
2019-02-16T08:27:22.599Z,66.94
2019-02-16T08:29:52.760Z,65.96
2019-02-16T08:32:35.010Z,65.71
2019-02-16T08:35:13.889Z,65.53
2019-02-16T08:37:49.429Z,65.51
2019-02-16T08:40:37.694Z,65.26
2019-02-16T08:43:19.609Z,64.54
2019-02-16T08:45:49.653Z,64.36
2019-02-16T08:48:22.665Z,64.00
2019-02-16T08:50:58.277Z,63.61
2019-02-16T08:53:37.179Z,62.99
2019-02-16T08:56:16.058Z,62.81
2019-02-16T08:58:51.967Z,62.03
2019-02-16T09:01:34.181Z,62.02
2019-02-16T09:04:06.802Z,61.59
2019-02-16T09:06:40.123Z,61.73
2019-02-16T09:09:19.209Z,60.65
2019-02-16T09:11:58.259Z,60.67
2019-02-16T09:14:28.340Z,59.50
2019-02-16T09:17:04.449Z,58.67
2019-02-16T09:19:39.866Z,59.27
2019-02-16T09:22:13.554Z,59.11
2019-02-16T09:24:43.936Z,58.16
2019-02-16T09:27:17.073Z,57.78
2019-02-16T09:29:59.245Z,57.55
2019-02-16T09:32:32.287Z,57.00
2019-02-16T09:35:02.398Z,57.37
2019-02-16T09:37:38.488Z,56.80
2019-02-16T09:40:17.231Z,56.03
2019-02-16T09:42:47.278Z,55.24
2019-02-16T09:45:17.293Z,54.62
2019-02-16T09:47:50.092Z,54.99
2019-02-16T09:50:34.697Z,54.30
2019-02-16T09:53:04.785Z,54.02
2019-02-16T09:55:40.707Z,53.60
2019-02-16T09:58:13.740Z,52.84
2019-02-16T10:00:43.933Z,52.51
2019-02-16T10:03:19.549Z,52.27
2019-02-16T10:05:49.642Z,52.08
2019-02-16T10:08:19.763Z,52.70
2019-02-16T10:10:52.479Z,52.21
2019-02-16T10:13:31.679Z,52.44
2019-02-16T10:16:17.366Z,51.23
2019-02-16T10:19:02.767Z,51.11
2019-02-16T10:21:32.886Z,50.29
2019-02-16T10:24:06.072Z,50.21
2019-02-16T10:26:47.730Z,50.00
2019-02-16T10:29:23.914Z,49.67
2019-02-16T10:31:57.076Z,49.64
2019-02-16T10:34:29.495Z,49.12
2019-02-16T10:37:05.239Z,48.75
2019-02-16T10:39:35.319Z,48.15
2019-02-16T10:42:21.771Z,48.66
2019-02-16T10:44:54.675Z,48.94
2019-02-16T10:47:40.856Z,49.54
2019-02-16T10:50:13.981Z,47.81
2019-02-16T10:52:44.067Z,47.72
2019-02-16T10:55:14.170Z,47.09
2019-02-16T10:57:44.258Z,46.82
2019-02-16T11:00:14.441Z,47.35
2019-02-16T11:02:47.569Z,46.88
2019-02-16T11:05:17.849Z,45.83
2019-02-16T11:07:59.734Z,45.59
2019-02-16T11:10:29.858Z,45.72
2019-02-16T11:13:15.919Z,45.55
2019-02-16T11:16:01.197Z,45.84
2019-02-16T11:18:34.251Z,44.95
2019-02-16T11:21:20.672Z,44.54
2019-02-16T11:23:53.409Z,44.38
2019-02-16T11:26:39.162Z,44.15
2019-02-16T11:29:18.350Z,44.35
2019-02-16T11:31:48.655Z,44.04
2019-02-16T11:34:34.722Z,44.52
2019-02-16T11:37:07.827Z,44.14
2019-02-16T11:39:40.385Z,43.23
2019-02-16T11:42:10.540Z,43.50
2019-02-16T11:44:46.186Z,42.97
2019-02-16T11:47:19.260Z,43.23
2019-02-16T11:49:50.953Z,42.47
2019-02-16T11:52:37.474Z,42.33
2019-02-16T11:55:18.680Z,41.90
2019-02-16T11:57:51.491Z,41.25
2019-02-16T12:00:36.735Z,39.69
2019-02-16T12:03:06.822Z,39.12
2019-02-16T12:05:54.948Z,38.63
2019-02-16T12:08:31.077Z,38.95
2019-02-16T12:11:06.945Z,38.38
2019-02-16T12:13:36.971Z,38.14
2019-02-16T12:16:23.041Z,37.48
2019-02-16T12:18:53.075Z,37.80
2019-02-16T12:21:39.251Z,37.96
2019-02-16T12:24:21.351Z,37.82
2019-02-16T12:27:09.300Z,37.15
2019-02-16T12:29:48.097Z,36.82
2019-02-16T12:32:18.240Z,36.64
2019-02-16T12:34:48.583Z,36.82
2019-02-16T12:37:18.732Z,36.96
2019-02-16T12:39:54.561Z,36.43
2019-02-16T12:42:30.339Z,36.09
2019-02-16T12:45:00.382Z,36.69
2019-02-16T12:47:42.850Z,37.12
2019-02-16T12:50:12.956Z,36.87
2019-02-16T12:52:42.957Z,37.30
2019-02-16T12:55:29.360Z,37.47
2019-02-16T12:58:02.364Z,37.74
2019-02-16T13:00:35.862Z,37.05
2019-02-16T13:03:17.773Z,34.91
2019-02-16T13:06:04.198Z,35.24
2019-02-16T13:08:34.522Z,36.09
2019-02-16T13:11:07.319Z,35.79
2019-02-16T13:13:52.299Z,36.09
2019-02-16T13:16:24.803Z,34.57
2019-02-16T13:18:57.652Z,33.39
2019-02-16T13:21:33.798Z,34.20
2019-02-16T13:24:03.972Z,34.65
2019-02-16T13:26:46.005Z,34.48
2019-02-16T13:29:25.228Z,33.04
2019-02-16T13:31:55.384Z,32.80
2019-02-16T13:34:25.483Z,32.90
2019-02-16T13:37:01.235Z,32.99
2019-02-16T13:39:31.261Z,33.11
2019-02-16T13:42:06.861Z,33.03
2019-02-16T13:44:45.820Z,32.34
2019-02-16T13:47:15.964Z,32.66
2019-02-16T13:49:46.334Z,32.79
2019-02-16T13:52:16.422Z,32.28
2019-02-16T13:54:46.547Z,32.95
2019-02-16T13:57:32.904Z,32.97
2019-02-16T14:00:08.413Z,32.29
2019-02-16T14:02:54.967Z,32.82
2019-02-16T14:05:25.058Z,32.65
2019-02-16T14:08:05.936Z,33.10
2019-02-16T14:10:38.764Z,32.74
2019-02-16T14:13:11.594Z,32.99
2019-02-16T14:15:41.671Z,33.73
2019-02-16T14:18:10.093Z,32.51
2019-02-16T14:20:38.795Z,32.45
2019-02-16T14:23:07.330Z,32.64
2019-02-16T14:25:43.833Z,32.50
2019-02-16T14:28:07.602Z,32.40
2019-02-16T14:30:36.203Z,32.80
2019-02-16T14:33:05.041Z,32.16
2019-02-16T14:35:33.500Z,32.23
2019-02-16T14:38:11.994Z,34.04
2019-02-16T14:40:40.518Z,34.65
2019-02-16T14:43:09.009Z,35.08
2019-02-16T14:45:39.128Z,33.90
2019-02-16T14:48:07.906Z,33.58
2019-02-16T14:50:36.431Z,33.93
2019-02-16T14:53:04.984Z,34.58
2019-02-16T14:55:33.807Z,35.12
2019-02-16T14:58:02.258Z,35.47
2019-02-16T15:00:30.974Z,35.84
2019-02-16T15:02:59.710Z,36.01
2019-02-16T15:05:28.161Z,36.02
2019-02-16T15:07:56.631Z,36.21
2019-02-16T15:10:25.179Z,36.66
2019-02-16T15:12:53.539Z,36.75
2019-02-16T15:15:21.957Z,37.12
2019-02-16T15:17:50.450Z,37.20
2019-02-16T15:20:19.070Z,37.34
2019-02-16T15:22:47.466Z,37.51
2019-02-16T15:25:16.416Z,37.71
2019-02-16T15:27:44.814Z,37.62
2019-02-16T15:30:18.654Z,37.84
2019-02-16T15:32:47.096Z,38.13
2019-02-16T15:35:15.488Z,38.25
2019-02-16T15:37:44.019Z,38.12
2019-02-16T15:40:13.221Z,38.34
2019-02-16T15:42:41.698Z,38.14
2019-02-16T15:45:14.101Z,38.37
2019-02-16T15:47:42.637Z,38.34
2019-02-16T15:50:15.115Z,38.37
2019-02-16T15:52:43.648Z,38.60
2019-02-16T15:55:12.807Z,38.92
2019-02-16T15:57:41.340Z,39.05
2019-02-16T16:00:21.092Z,39.20
2019-02-16T16:02:49.596Z,39.40
2019-02-16T16:05:18.110Z,39.38
2019-02-16T16:07:48.307Z,39.82
2019-02-16T16:10:36.193Z,40.14
2019-02-16T16:13:11.979Z,40.21
2019-02-16T16:15:44.651Z,40.35
2019-02-16T16:18:14.211Z,40.37
2019-02-16T16:21:00.200Z,40.57
2019-02-16T16:23:38.744Z,40.95
2019-02-16T16:26:26.672Z,41.11
2019-02-16T16:29:00.598Z,41.24
2019-02-16T16:31:34.513Z,41.70
2019-02-16T16:34:16.497Z,41.94
2019-02-16T16:36:50.052Z,42.06
2019-02-16T16:39:31.992Z,42.31
2019-02-16T16:42:07.978Z,42.33
2019-02-16T16:44:38.040Z,42.47
2019-02-16T16:47:27.769Z,42.73
2019-02-16T16:50:00.438Z,42.56
2019-02-16T16:52:39.401Z,42.72
2019-02-16T16:55:27.082Z,42.88
2019-02-16T16:58:02.840Z,43.02
2019-02-16T17:00:33.227Z,43.11
2019-02-16T17:03:21.103Z,43.29
2019-02-16T17:05:54.237Z,43.53
2019-02-16T17:08:24.248Z,43.84
2019-02-16T17:10:57.869Z,43.73
2019-02-16T17:13:28.081Z,43.76
2019-02-16T17:16:01.125Z,43.89
2019-02-16T17:18:47.270Z,44.02
2019-02-16T17:21:20.393Z,44.37
2019-02-16T17:23:55.988Z,44.43
2019-02-16T17:26:26.098Z,44.52
2019-02-16T17:29:12.091Z,44.81
2019-02-16T17:31:58.142Z,44.76
2019-02-16T17:34:43.116Z,45.09
2019-02-16T17:37:27.774Z,45.12
2019-02-16T17:39:57.867Z,45.08
2019-02-16T17:42:42.875Z,45.09
2019-02-16T17:45:27.462Z,45.35
2019-02-16T17:48:03.747Z,45.73
2019-02-16T17:50:36.454Z,45.47
2019-02-16T17:53:12.800Z,45.75
2019-02-16T17:55:59.016Z,45.61
2019-02-16T17:58:38.081Z,45.75
2019-02-16T18:01:08.439Z,46.06
2019-02-16T18:03:41.141Z,46.06
2019-02-16T18:06:16.989Z,46.44
2019-02-16T18:08:50.034Z,46.85
2019-02-16T18:11:25.586Z,47.24
2019-02-16T18:13:55.620Z,47.51
2019-02-16T18:16:42.063Z,47.34
2019-02-16T18:19:15.028Z,47.56
2019-02-16T18:21:46.485Z,47.89
2019-02-16T18:24:16.666Z,47.83
2019-02-16T18:26:55.787Z,48.31
2019-02-16T18:29:24.522Z,48.33
2019-02-16T18:32:00.398Z,48.76
2019-02-16T18:34:42.020Z,49.02
2019-02-16T18:37:12.159Z,49.38
2019-02-16T18:39:45.321Z,50.04
2019-02-16T18:42:24.108Z,50.40
2019-02-16T18:44:54.549Z,50.73
2019-02-16T18:47:33.731Z,51.19
2019-02-16T18:50:03.825Z,51.48
2019-02-16T18:52:50.341Z,51.03
2019-02-16T18:55:20.437Z,50.94
2019-02-16T18:58:06.662Z,50.93
2019-02-16T19:00:39.136Z,51.24
2019-02-16T19:03:15.130Z,51.45
2019-02-16T19:05:45.473Z,51.60
2019-02-16T19:08:18.419Z,51.68
2019-02-16T19:10:54.304Z,51.77
2019-02-16T19:13:24.428Z,51.79
2019-02-16T19:15:54.535Z,50.91
2019-02-16T19:18:24.566Z,50.68
2019-02-16T19:20:54.602Z,50.87
2019-02-16T19:23:24.706Z,50.88
2019-02-16T19:25:54.816Z,51.12
2019-02-16T19:28:33.332Z,51.50
2019-02-16T19:31:21.493Z,51.43
2019-02-16T19:33:53.909Z,51.46
2019-02-16T19:36:24.026Z,51.64
2019-02-16T19:39:09.948Z,51.99
2019-02-16T19:41:54.557Z,52.07
2019-02-16T19:44:24.898Z,51.38
2019-02-16T19:46:55.059Z,51.36
2019-02-16T19:49:33.552Z,51.52
2019-02-16T19:52:06.588Z,51.29
2019-02-16T19:54:36.663Z,51.47
2019-02-16T19:57:15.594Z,51.51
2019-02-16T19:59:48.661Z,51.74
2019-02-16T20:02:18.719Z,52.08
2019-02-16T20:05:00.415Z,52.34
2019-02-16T20:07:30.415Z,52.49
2019-02-16T20:10:11.917Z,52.25
2019-02-16T20:13:02.432Z,52.30
2019-02-16T20:15:47.126Z,52.60
2019-02-16T20:18:33.488Z,52.28
2019-02-16T20:21:18.246Z,52.41
2019-02-16T20:23:54.311Z,52.61
2019-02-16T20:26:24.348Z,52.87
2019-02-16T20:28:57.142Z,52.78
2019-02-16T20:31:29.929Z,52.89
2019-02-16T20:34:08.501Z,52.99
2019-02-16T20:36:41.212Z,53.08
2019-02-16T20:39:29.477Z,53.12
2019-02-16T20:42:16.158Z,53.41
2019-02-16T20:44:52.173Z,53.48
2019-02-16T20:47:40.421Z,53.54
2019-02-16T20:50:10.578Z,53.63
2019-02-16T20:52:49.835Z,53.73
2019-02-16T20:55:22.784Z,53.73
2019-02-16T20:57:55.696Z,53.69
2019-02-16T21:00:31.932Z,53.60
2019-02-16T21:03:11.068Z,53.73
2019-02-16T21:05:57.558Z,53.88
2019-02-16T21:08:43.368Z,54.20
2019-02-16T21:11:29.667Z,54.48
2019-02-16T21:14:02.604Z,54.53
2019-02-16T21:16:41.762Z,54.85
2019-02-16T21:19:14.313Z,54.93
2019-02-16T21:21:44.332Z,55.05
2019-02-16T21:24:14.427Z,55.11
2019-02-16T21:26:53.186Z,55.16
2019-02-16T21:29:34.759Z,55.35
2019-02-16T21:32:04.891Z,55.33
2019-02-16T21:34:37.802Z,55.26
2019-02-16T21:37:24.109Z,55.36
2019-02-16T21:40:00.173Z,55.26
2019-02-16T21:42:30.435Z,55.31
2019-02-16T21:45:03.576Z,55.64
2019-02-16T21:47:50.174Z,55.71
2019-02-16T21:50:23.082Z,55.78
2019-02-16T21:52:55.639Z,55.88
2019-02-16T21:55:40.925Z,56.61
2019-02-16T21:58:16.626Z,56.64
2019-02-16T22:00:46.677Z,56.65
2019-02-16T22:03:25.452Z,57.04
2019-02-16T22:05:57.956Z,57.48
2019-02-16T22:08:28.394Z,57.74
2019-02-16T22:11:04.167Z,57.72
2019-02-16T22:13:32.546Z,57.98
2019-02-16T22:16:01.056Z,58.25
2019-02-16T22:18:29.516Z,58.48
2019-02-16T22:20:58.103Z,59.03
2019-02-16T22:23:26.536Z,59.31
2019-02-16T22:25:55.207Z,59.23
2019-02-16T22:28:30.859Z,59.44
2019-02-16T22:30:53.977Z,59.38
2019-02-16T22:33:22.364Z,59.84
2019-02-16T22:35:50.943Z,59.67
2019-02-16T22:38:19.385Z,59.48
2019-02-16T22:40:47.928Z,59.51
2019-02-16T22:43:16.472Z,59.86
2019-02-16T22:45:44.959Z,59.97
2019-02-16T22:48:13.334Z,59.97
2019-02-16T22:50:41.795Z,59.83
2019-02-16T22:53:10.254Z,59.89
2019-02-16T22:55:38.636Z,59.92
2019-02-16T22:58:07.089Z,60.19
2019-02-16T23:00:37.374Z,60.23
2019-02-16T23:03:06.825Z,60.28
2019-02-16T23:05:37.288Z,59.78
2019-02-16T23:08:06.175Z,59.75
2019-02-16T23:10:34.724Z,59.91
2019-02-16T23:13:03.223Z,59.94
2019-02-16T23:15:31.756Z,60.12
2019-02-16T23:18:00.235Z,60.10
2019-02-16T23:20:28.748Z,60.33
2019-02-16T23:22:57.238Z,60.30
2019-02-16T23:25:25.702Z,60.53
2019-02-16T23:27:54.471Z,60.50
2019-02-16T23:30:23.112Z,60.70
2019-02-16T23:32:52.095Z,60.95
2019-02-16T23:35:20.591Z,61.13
2019-02-16T23:37:49.345Z,60.80
2019-02-16T23:40:17.893Z,60.89
2019-02-16T23:42:46.419Z,60.64
2019-02-16T23:45:14.959Z,60.89
2019-02-16T23:47:43.412Z,60.91
2019-02-16T23:50:11.917Z,60.79
2019-02-16T23:52:40.283Z,60.93
2019-02-16T23:55:10.439Z,60.87
2019-02-16T23:57:38.874Z,61.06
